sensor_id;sensor_type;location;lat;lon;timestamp;temperature;humidity
18876;DHT22;9570;50.854;13.778;2022-10-15T00:00:46;14.30;99.90
18876;DHT22;9570;50.854;13.778;2022-10-15T00:03:12;14.30;99.90
18876;DHT22;9570;50.854;13.778;2022-10-15T00:05:38;14.30;99.90
18876;DHT22;9570;50.854;13.778;2022-10-15T00:08:06;14.30;99.90
18876;DHT22;9570;50.854;13.778;2022-10-15T00:10:33;14.30;99.90
18876;DHT22;9570;50.854;13.778;2022-10-15T00:12:58;14.30;99.90
18876;DHT22;9570;50.854;13.778;2022-10-15T00:15:24;14.30;99.90
18876;DHT22;9570;50.854;13.778;2022-10-15T00:17:49;14.40;99.90
18876;DHT22;9570;50.854;13.778;2022-10-15T00:20:15;14.40;99.90
18876;DHT22;9570;50.854;13.778;2022-10-15T00:22:41;14.30;99.90
18876;DHT22;9570;50.854;13.778;2022-10-15T00:25:06;14.30;99.90
18876;DHT22;9570;50.854;13.778;2022-10-15T00:27:33;14.40;99.90
18876;DHT22;9570;50.854;13.778;2022-10-15T00:29:59;14.30;99.90
18876;DHT22;9570;50.854;13.778;2022-10-15T00:32:25;14.30;99.90
18876;DHT22;9570;50.854;13.778;2022-10-15T00:34:51;14.30;99.90
18876;DHT22;9570;50.854;13.778;2022-10-15T00:37:16;14.30;99.90
18876;DHT22;9570;50.854;13.778;2022-10-15T00:39:42;14.30;99.90
18876;DHT22;9570;50.854;13.778;2022-10-15T00:42:09;14.30;99.90
18876;DHT22;9570;50.854;13.778;2022-10-15T00:47:34;14.20;99.90
18876;DHT22;9570;50.854;13.778;2022-10-15T00:52:36;14.30;99.90
18876;DHT22;9570;50.854;13.778;2022-10-15T00:55:10;14.20;99.90
18876;DHT22;9570;50.854;13.778;2022-10-15T00:57:37;14.20;99.90
18876;DHT22;9570;50.854;13.778;2022-10-15T01:00:07;14.10;99.90
18876;DHT22;9570;50.854;13.778;2022-10-15T01:02:34;14.10;99.90
18876;DHT22;9570;50.854;13.778;2022-10-15T01:04:59;14.20;99.90
18876;DHT22;9570;50.854;13.778;2022-10-15T01:07:25;14.20;99.90
18876;DHT22;9570;50.854;13.778;2022-10-15T01:09:50;14.20;99.90
18876;DHT22;9570;50.854;13.778;2022-10-15T01:12:55;14.20;99.90
18876;DHT22;9570;50.854;13.778;2022-10-15T01:15:33;14.20;99.90
18876;DHT22;9570;50.854;13.778;2022-10-15T01:18:14;14.20;99.90
18876;DHT22;9570;50.854;13.778;2022-10-15T01:21:02;14.10;99.90
18876;DHT22;9570;50.854;13.778;2022-10-15T01:29:00;14.20;99.90
18876;DHT22;9570;50.854;13.778;2022-10-15T01:31:53;14.20;99.90
18876;DHT22;9570;50.854;13.778;2022-10-15T01:34:35;14.30;99.90
18876;DHT22;9570;50.854;13.778;2022-10-15T01:37:38;14.20;99.90
18876;DHT22;9570;50.854;13.778;2022-10-15T01:40:29;14.10;99.90
18876;DHT22;9570;50.854;13.778;2022-10-15T01:43:02;14.10;99.90
18876;DHT22;9570;50.854;13.778;2022-10-15T01:45:35;14.10;99.90
18876;DHT22;9570;50.854;13.778;2022-10-15T01:48:06;14.10;99.90
18876;DHT22;9570;50.854;13.778;2022-10-15T01:50:34;14.20;99.90
18876;DHT22;9570;50.854;13.778;2022-10-15T01:53:03;14.20;99.90
18876;DHT22;9570;50.854;13.778;2022-10-15T01:55:30;14.20;99.90
18876;DHT22;9570;50.854;13.778;2022-10-15T01:57:58;14.20;99.90
18876;DHT22;9570;50.854;13.778;2022-10-15T02:00:25;14.20;99.90
18876;DHT22;9570;50.854;13.778;2022-10-15T02:02:50;14.00;99.90
18876;DHT22;9570;50.854;13.778;2022-10-15T02:05:23;14.10;99.90
18876;DHT22;9570;50.854;13.778;2022-10-15T02:08:18;14.10;99.90
18876;DHT22;9570;50.854;13.778;2022-10-15T02:10:53;14.10;99.90
18876;DHT22;9570;50.854;13.778;2022-10-15T02:13:49;14.00;99.90
18876;DHT22;9570;50.854;13.778;2022-10-15T02:16:29;14.10;99.90
18876;DHT22;9570;50.854;13.778;2022-10-15T02:19:03;14.10;99.90
18876;DHT22;9570;50.854;13.778;2022-10-15T02:21:39;14.10;99.90
18876;DHT22;9570;50.854;13.778;2022-10-15T02:25:00;14.00;99.90
18876;DHT22;9570;50.854;13.778;2022-10-15T02:27:01;14.00;99.90
18876;DHT22;9570;50.854;13.778;2022-10-15T02:29:30;14.10;99.90
18876;DHT22;9570;50.854;13.778;2022-10-15T02:31:57;14.10;99.90
18876;DHT22;9570;50.854;13.778;2022-10-15T02:34:27;14.10;99.90
18876;DHT22;9570;50.854;13.778;2022-10-15T02:36:58;14.20;99.90
18876;DHT22;9570;50.854;13.778;2022-10-15T02:39:25;14.20;99.90
18876;DHT22;9570;50.854;13.778;2022-10-15T02:41:51;14.10;99.90
18876;DHT22;9570;50.854;13.778;2022-10-15T02:44:17;14.10;99.90
18876;DHT22;9570;50.854;13.778;2022-10-15T02:46:43;14.10;99.90
18876;DHT22;9570;50.854;13.778;2022-10-15T02:49:08;14.10;99.90
18876;DHT22;9570;50.854;13.778;2022-10-15T02:51:35;14.10;99.90
18876;DHT22;9570;50.854;13.778;2022-10-15T02:54:02;14.10;99.90
18876;DHT22;9570;50.854;13.778;2022-10-15T02:56:28;14.10;99.90
18876;DHT22;9570;50.854;13.778;2022-10-15T02:58:53;14.20;99.90
18876;DHT22;9570;50.854;13.778;2022-10-15T03:01:19;14.20;99.90
18876;DHT22;9570;50.854;13.778;2022-10-15T03:03:45;14.20;99.90
18876;DHT22;9570;50.854;13.778;2022-10-15T03:06:10;14.20;99.90
18876;DHT22;9570;50.854;13.778;2022-10-15T03:08:36;14.10;99.90
18876;DHT22;9570;50.854;13.778;2022-10-15T03:11:01;14.10;99.90
18876;DHT22;9570;50.854;13.778;2022-10-15T03:13:28;14.10;99.90
18876;DHT22;9570;50.854;13.778;2022-10-15T03:15:53;14.10;99.90
18876;DHT22;9570;50.854;13.778;2022-10-15T03:18:19;14.10;99.90
18876;DHT22;9570;50.854;13.778;2022-10-15T03:20:55;14.10;99.90
18876;DHT22;9570;50.854;13.778;2022-10-15T03:23:22;14.10;99.90
18876;DHT22;9570;50.854;13.778;2022-10-15T03:25:48;14.10;99.90
18876;DHT22;9570;50.854;13.778;2022-10-15T03:28:14;14.10;99.90
18876;DHT22;9570;50.854;13.778;2022-10-15T03:30:41;14.20;99.90
18876;DHT22;9570;50.854;13.778;2022-10-15T03:33:06;14.20;99.90
18876;DHT22;9570;50.854;13.778;2022-10-15T03:35:32;14.20;99.90
18876;DHT22;9570;50.854;13.778;2022-10-15T03:37:57;14.20;99.90
18876;DHT22;9570;50.854;13.778;2022-10-15T03:40:23;14.20;99.90
18876;DHT22;9570;50.854;13.778;2022-10-15T03:42:50;14.20;99.90
18876;DHT22;9570;50.854;13.778;2022-10-15T03:45:16;14.20;99.90
18876;DHT22;9570;50.854;13.778;2022-10-15T03:47:42;14.20;99.90
18876;DHT22;9570;50.854;13.778;2022-10-15T03:50:07;14.20;99.90
18876;DHT22;9570;50.854;13.778;2022-10-15T03:52:34;14.20;99.90
18876;DHT22;9570;50.854;13.778;2022-10-15T03:55:00;14.20;99.90
18876;DHT22;9570;50.854;13.778;2022-10-15T03:57:25;14.10;99.90
18876;DHT22;9570;50.854;13.778;2022-10-15T03:59:51;14.10;99.90
18876;DHT22;9570;50.854;13.778;2022-10-15T04:02:16;14.20;99.90
18876;DHT22;9570;50.854;13.778;2022-10-15T04:04:42;14.20;99.90
18876;DHT22;9570;50.854;13.778;2022-10-15T04:07:07;14.20;99.90
18876;DHT22;9570;50.854;13.778;2022-10-15T04:09:33;14.20;99.90
18876;DHT22;9570;50.854;13.778;2022-10-15T04:11:58;14.20;99.90
18876;DHT22;9570;50.854;13.778;2022-10-15T04:14:24;14.20;99.90
18876;DHT22;9570;50.854;13.778;2022-10-15T04:16:49;14.10;99.90
18876;DHT22;9570;50.854;13.778;2022-10-15T04:19:15;14.10;99.90
18876;DHT22;9570;50.854;13.778;2022-10-15T04:21:40;14.10;99.90
18876;DHT22;9570;50.854;13.778;2022-10-15T04:24:06;14.20;99.90
18876;DHT22;9570;50.854;13.778;2022-10-15T04:26:32;14.10;99.90
18876;DHT22;9570;50.854;13.778;2022-10-15T04:28:57;14.10;99.90
18876;DHT22;9570;50.854;13.778;2022-10-15T04:31:23;14.10;99.90
18876;DHT22;9570;50.854;13.778;2022-10-15T04:33:49;14.10;99.90
18876;DHT22;9570;50.854;13.778;2022-10-15T04:36:14;14.10;99.90
18876;DHT22;9570;50.854;13.778;2022-10-15T04:38:40;14.10;99.90
18876;DHT22;9570;50.854;13.778;2022-10-15T04:41:08;14.10;99.90
18876;DHT22;9570;50.854;13.778;2022-10-15T04:43:34;14.10;99.90
18876;DHT22;9570;50.854;13.778;2022-10-15T04:46:03;14.10;99.90
18876;DHT22;9570;50.854;13.778;2022-10-15T04:48:30;14.10;99.90
18876;DHT22;9570;50.854;13.778;2022-10-15T04:51:12;14.00;99.90
18876;DHT22;9570;50.854;13.778;2022-10-15T04:53:38;14.00;99.90
18876;DHT22;9570;50.854;13.778;2022-10-15T04:56:05;14.00;99.90
18876;DHT22;9570;50.854;13.778;2022-10-15T04:58:32;14.00;99.90
18876;DHT22;9570;50.854;13.778;2022-10-15T05:01:03;14.10;99.90
18876;DHT22;9570;50.854;13.778;2022-10-15T05:03:29;14.10;99.90
18876;DHT22;9570;50.854;13.778;2022-10-15T05:06:04;14.00;99.90
18876;DHT22;9570;50.854;13.778;2022-10-15T05:08:30;14.00;99.90
18876;DHT22;9570;50.854;13.778;2022-10-15T05:11:04;14.00;99.90
18876;DHT22;9570;50.854;13.778;2022-10-15T05:13:32;13.90;99.90
18876;DHT22;9570;50.854;13.778;2022-10-15T05:18:41;13.90;99.90
18876;DHT22;9570;50.854;13.778;2022-10-15T05:21:08;13.90;99.90
18876;DHT22;9570;50.854;13.778;2022-10-15T05:23:34;13.90;99.90
18876;DHT22;9570;50.854;13.778;2022-10-15T05:26:03;13.90;99.90
18876;DHT22;9570;50.854;13.778;2022-10-15T05:28:29;13.90;99.90
18876;DHT22;9570;50.854;13.778;2022-10-15T05:30:55;13.90;99.90
18876;DHT22;9570;50.854;13.778;2022-10-15T05:33:21;13.90;99.90
18876;DHT22;9570;50.854;13.778;2022-10-15T05:35:47;13.90;99.90
18876;DHT22;9570;50.854;13.778;2022-10-15T05:38:12;14.00;99.90
18876;DHT22;9570;50.854;13.778;2022-10-15T05:40:38;14.00;99.90
18876;DHT22;9570;50.854;13.778;2022-10-15T05:43:03;14.00;99.90
18876;DHT22;9570;50.854;13.778;2022-10-15T05:45:29;14.10;99.90
18876;DHT22;9570;50.854;13.778;2022-10-15T05:47:55;14.10;99.90
18876;DHT22;9570;50.854;13.778;2022-10-15T05:50:22;14.00;99.90
18876;DHT22;9570;50.854;13.778;2022-10-15T05:52:47;14.00;99.90
18876;DHT22;9570;50.854;13.778;2022-10-15T05:55:13;14.00;99.90
18876;DHT22;9570;50.854;13.778;2022-10-15T05:57:38;14.00;99.90
18876;DHT22;9570;50.854;13.778;2022-10-15T06:00:06;14.00;99.90
18876;DHT22;9570;50.854;13.778;2022-10-15T06:02:31;14.10;99.90
18876;DHT22;9570;50.854;13.778;2022-10-15T06:04:57;14.10;99.90
18876;DHT22;9570;50.854;13.778;2022-10-15T06:07:22;14.20;99.90
18876;DHT22;9570;50.854;13.778;2022-10-15T06:09:48;14.20;99.90
18876;DHT22;9570;50.854;13.778;2022-10-15T06:12:13;14.20;99.90
18876;DHT22;9570;50.854;13.778;2022-10-15T06:14:39;14.20;99.90
18876;DHT22;9570;50.854;13.778;2022-10-15T06:17:04;14.10;99.90
18876;DHT22;9570;50.854;13.778;2022-10-15T06:19:30;14.00;99.90
18876;DHT22;9570;50.854;13.778;2022-10-15T06:21:56;14.00;99.90
18876;DHT22;9570;50.854;13.778;2022-10-15T06:24:22;14.10;99.90
18876;DHT22;9570;50.854;13.778;2022-10-15T06:26:47;14.10;99.90
18876;DHT22;9570;50.854;13.778;2022-10-15T06:29:13;14.20;99.90
18876;DHT22;9570;50.854;13.778;2022-10-15T06:31:38;14.10;99.90
18876;DHT22;9570;50.854;13.778;2022-10-15T06:34:04;14.10;99.90
18876;DHT22;9570;50.854;13.778;2022-10-15T06:36:29;14.10;99.90
18876;DHT22;9570;50.854;13.778;2022-10-15T06:38:55;14.10;99.90
18876;DHT22;9570;50.854;13.778;2022-10-15T06:41:20;14.20;99.90
18876;DHT22;9570;50.854;13.778;2022-10-15T06:43:48;14.20;99.90
18876;DHT22;9570;50.854;13.778;2022-10-15T06:46:14;14.30;99.90
18876;DHT22;9570;50.854;13.778;2022-10-15T06:48:39;14.30;99.90
18876;DHT22;9570;50.854;13.778;2022-10-15T06:51:05;14.40;99.90
18876;DHT22;9570;50.854;13.778;2022-10-15T06:53:30;14.40;99.90
18876;DHT22;9570;50.854;13.778;2022-10-15T06:55:57;14.40;99.90
18876;DHT22;9570;50.854;13.778;2022-10-15T06:58:22;14.50;99.90
18876;DHT22;9570;50.854;13.778;2022-10-15T07:00:48;14.50;99.90
18876;DHT22;9570;50.854;13.778;2022-10-15T07:03:14;14.50;99.90
18876;DHT22;9570;50.854;13.778;2022-10-15T07:05:39;14.50;99.90
18876;DHT22;9570;50.854;13.778;2022-10-15T07:08:04;14.50;99.90
18876;DHT22;9570;50.854;13.778;2022-10-15T07:10:30;14.40;99.90
18876;DHT22;9570;50.854;13.778;2022-10-15T07:12:59;14.50;99.90
18876;DHT22;9570;50.854;13.778;2022-10-15T07:15:25;14.50;99.90
18876;DHT22;9570;50.854;13.778;2022-10-15T07:17:52;14.50;99.90
18876;DHT22;9570;50.854;13.778;2022-10-15T07:20:21;14.50;99.90
18876;DHT22;9570;50.854;13.778;2022-10-15T07:22:47;14.50;99.90
18876;DHT22;9570;50.854;13.778;2022-10-15T07:25:13;14.50;99.90
18876;DHT22;9570;50.854;13.778;2022-10-15T07:27:39;14.50;99.90
18876;DHT22;9570;50.854;13.778;2022-10-15T07:30:06;14.50;99.90
18876;DHT22;9570;50.854;13.778;2022-10-15T07:32:31;14.50;99.90
18876;DHT22;9570;50.854;13.778;2022-10-15T07:34:57;14.50;99.90
18876;DHT22;9570;50.854;13.778;2022-10-15T07:37:22;14.60;99.90
18876;DHT22;9570;50.854;13.778;2022-10-15T07:39:48;14.60;99.90
18876;DHT22;9570;50.854;13.778;2022-10-15T07:42:14;14.70;99.90
18876;DHT22;9570;50.854;13.778;2022-10-15T07:44:39;14.70;99.90
18876;DHT22;9570;50.854;13.778;2022-10-15T07:47:06;14.70;99.90
18876;DHT22;9570;50.854;13.778;2022-10-15T07:49:31;14.80;99.90
18876;DHT22;9570;50.854;13.778;2022-10-15T07:51:57;14.90;99.90
18876;DHT22;9570;50.854;13.778;2022-10-15T07:54:23;15.00;99.90
18876;DHT22;9570;50.854;13.778;2022-10-15T07:56:48;15.00;99.90
18876;DHT22;9570;50.854;13.778;2022-10-15T07:59:14;15.00;99.90
18876;DHT22;9570;50.854;13.778;2022-10-15T08:01:39;15.10;99.90
18876;DHT22;9570;50.854;13.778;2022-10-15T08:04:05;15.10;99.90
18876;DHT22;9570;50.854;13.778;2022-10-15T08:06:31;15.20;99.90
18876;DHT22;9570;50.854;13.778;2022-10-15T08:08:57;15.20;99.90
18876;DHT22;9570;50.854;13.778;2022-10-15T08:11:23;15.20;99.90
18876;DHT22;9570;50.854;13.778;2022-10-15T08:13:48;15.20;99.90
18876;DHT22;9570;50.854;13.778;2022-10-15T08:16:15;15.20;99.90
18876;DHT22;9570;50.854;13.778;2022-10-15T08:18:40;15.20;99.90
18876;DHT22;9570;50.854;13.778;2022-10-15T08:21:07;15.30;99.90
18876;DHT22;9570;50.854;13.778;2022-10-15T08:23:33;15.40;99.90
18876;DHT22;9570;50.854;13.778;2022-10-15T08:25:59;15.40;99.90
18876;DHT22;9570;50.854;13.778;2022-10-15T08:28:29;15.50;99.90
18876;DHT22;9570;50.854;13.778;2022-10-15T08:30:59;15.50;99.90
18876;DHT22;9570;50.854;13.778;2022-10-15T08:33:25;15.50;99.90
18876;DHT22;9570;50.854;13.778;2022-10-15T08:35:52;15.40;99.90
18876;DHT22;9570;50.854;13.778;2022-10-15T08:38:17;15.30;99.90
18876;DHT22;9570;50.854;13.778;2022-10-15T08:40:54;15.30;99.90
18876;DHT22;9570;50.854;13.778;2022-10-15T08:43:40;15.20;99.90
18876;DHT22;9570;50.854;13.778;2022-10-15T08:46:17;15.20;99.90
18876;DHT22;9570;50.854;13.778;2022-10-15T08:48:53;15.20;99.90
18876;DHT22;9570;50.854;13.778;2022-10-15T08:51:24;15.20;99.90
18876;DHT22;9570;50.854;13.778;2022-10-15T08:53:55;15.20;99.90
18876;DHT22;9570;50.854;13.778;2022-10-15T08:56:23;15.30;99.90
18876;DHT22;9570;50.854;13.778;2022-10-15T09:04:41;15.60;99.90
18876;DHT22;9570;50.854;13.778;2022-10-15T09:07:15;15.70;99.90
18876;DHT22;9570;50.854;13.778;2022-10-15T09:09:50;15.90;99.90
18876;DHT22;9570;50.854;13.778;2022-10-15T09:12:28;16.00;99.90
18876;DHT22;9570;50.854;13.778;2022-10-15T09:14:58;16.20;99.90
18876;DHT22;9570;50.854;13.778;2022-10-15T09:17:28;16.20;99.90
18876;DHT22;9570;50.854;13.778;2022-10-15T09:19:56;16.30;99.90
18876;DHT22;9570;50.854;13.778;2022-10-15T09:22:25;16.30;99.90
18876;DHT22;9570;50.854;13.778;2022-10-15T09:24:51;16.30;99.90
18876;DHT22;9570;50.854;13.778;2022-10-15T09:27:33;16.30;99.90
18876;DHT22;9570;50.854;13.778;2022-10-15T09:35:53;16.60;99.90
18876;DHT22;9570;50.854;13.778;2022-10-15T09:38:53;16.60;99.90
18876;DHT22;9570;50.854;13.778;2022-10-15T09:44:12;16.80;99.90
18876;DHT22;9570;50.854;13.778;2022-10-15T09:46:46;16.80;99.90
18876;DHT22;9570;50.854;13.778;2022-10-15T09:49:15;16.80;99.90
18876;DHT22;9570;50.854;13.778;2022-10-15T09:52:01;16.80;99.90
18876;DHT22;9570;50.854;13.778;2022-10-15T09:54:33;16.80;99.90
18876;DHT22;9570;50.854;13.778;2022-10-15T09:57:02;16.90;99.90
18876;DHT22;9570;50.854;13.778;2022-10-15T09:59:27;16.80;99.90
18876;DHT22;9570;50.854;13.778;2022-10-15T10:02:23;16.70;99.90
18876;DHT22;9570;50.854;13.778;2022-10-15T10:04:49;16.60;99.90
18876;DHT22;9570;50.854;13.778;2022-10-15T10:07:36;16.60;99.90
18876;DHT22;9570;50.854;13.778;2022-10-15T10:12:47;16.70;99.90
18876;DHT22;9570;50.854;13.778;2022-10-15T10:15:34;16.70;99.90
18876;DHT22;9570;50.854;13.778;2022-10-15T10:18:01;16.70;99.90
18876;DHT22;9570;50.854;13.778;2022-10-15T10:20:30;16.60;99.90
18876;DHT22;9570;50.854;13.778;2022-10-15T10:22:58;16.70;99.90
18876;DHT22;9570;50.854;13.778;2022-10-15T10:25:41;16.70;99.90
18876;DHT22;9570;50.854;13.778;2022-10-15T10:30:36;16.90;99.90
18876;DHT22;9570;50.854;13.778;2022-10-15T10:33:03;16.90;99.90
18876;DHT22;9570;50.854;13.778;2022-10-15T10:35:45;17.00;99.90
18876;DHT22;9570;50.854;13.778;2022-10-15T10:38:23;17.20;99.90
18876;DHT22;9570;50.854;13.778;2022-10-15T10:40:50;17.20;99.90
18876;DHT22;9570;50.854;13.778;2022-10-15T10:48:39;17.50;99.90
18876;DHT22;9570;50.854;13.778;2022-10-15T10:51:20;17.40;99.90
18876;DHT22;9570;50.854;13.778;2022-10-15T10:53:57;17.50;99.90
18876;DHT22;9570;50.854;13.778;2022-10-15T10:56:35;17.50;99.90
18876;DHT22;9570;50.854;13.778;2022-10-15T10:59:39;17.70;99.90
18876;DHT22;9570;50.854;13.778;2022-10-15T11:02:11;17.60;99.90
18876;DHT22;9570;50.854;13.778;2022-10-15T11:04:37;17.50;99.90
18876;DHT22;9570;50.854;13.778;2022-10-15T11:10:22;17.40;99.90
18876;DHT22;9570;50.854;13.778;2022-10-15T11:15:45;17.50;99.90
18876;DHT22;9570;50.854;13.778;2022-10-15T11:24:01;17.50;99.90
18876;DHT22;9570;50.854;13.778;2022-10-15T11:26:53;17.50;99.90
18876;DHT22;9570;50.854;13.778;2022-10-15T11:47:28;17.40;99.90
18876;DHT22;9570;50.854;13.778;2022-10-15T11:52:36;17.20;99.90
18876;DHT22;9570;50.854;13.778;2022-10-15T11:55:13;17.20;99.90
18876;DHT22;9570;50.854;13.778;2022-10-15T11:57:42;17.20;99.90
18876;DHT22;9570;50.854;13.778;2022-10-15T12:02:54;17.10;99.90
18876;DHT22;9570;50.854;13.778;2022-10-15T12:05:34;17.20;99.90
18876;DHT22;9570;50.854;13.778;2022-10-15T12:08:02;17.40;99.90
18876;DHT22;9570;50.854;13.778;2022-10-15T12:10:39;17.30;99.90
18876;DHT22;9570;50.854;13.778;2022-10-15T12:13:23;17.20;99.90
18876;DHT22;9570;50.854;13.778;2022-10-15T12:21:31;17.30;99.90
18876;DHT22;9570;50.854;13.778;2022-10-15T12:23:58;17.40;99.90
18876;DHT22;9570;50.854;13.778;2022-10-15T12:28:53;17.50;99.90
18876;DHT22;9570;50.854;13.778;2022-10-15T12:31:20;17.60;99.90
18876;DHT22;9570;50.854;13.778;2022-10-15T12:33:56;17.50;99.90
18876;DHT22;9570;50.854;13.778;2022-10-15T12:36:29;17.40;99.90
18876;DHT22;9570;50.854;13.778;2022-10-15T12:39:02;17.30;99.90
18876;DHT22;9570;50.854;13.778;2022-10-15T12:41:43;17.30;99.90
18876;DHT22;9570;50.854;13.778;2022-10-15T12:46:45;17.50;99.90
18876;DHT22;9570;50.854;13.778;2022-10-15T12:51:53;17.60;99.90
18876;DHT22;9570;50.854;13.778;2022-10-15T12:54:38;17.70;99.90
18876;DHT22;9570;50.854;13.778;2022-10-15T12:59:59;17.50;99.90
18876;DHT22;9570;50.854;13.778;2022-10-15T13:02:40;17.40;99.90
18876;DHT22;9570;50.854;13.778;2022-10-15T13:05:11;17.40;99.90
18876;DHT22;9570;50.854;13.778;2022-10-15T13:07:47;17.10;99.90
18876;DHT22;9570;50.854;13.778;2022-10-15T13:10:34;17.00;99.90
18876;DHT22;9570;50.854;13.778;2022-10-15T13:13:04;17.10;99.90
18876;DHT22;9570;50.854;13.778;2022-10-15T13:15:31;17.20;99.90
18876;DHT22;9570;50.854;13.778;2022-10-15T13:18:03;17.20;99.90
18876;DHT22;9570;50.854;13.778;2022-10-15T13:20:41;17.30;99.90
18876;DHT22;9570;50.854;13.778;2022-10-15T13:25:43;17.50;99.90
18876;DHT22;9570;50.854;13.778;2022-10-15T13:28:33;17.50;99.90
18876;DHT22;9570;50.854;13.778;2022-10-15T13:31:06;17.50;99.90
18876;DHT22;9570;50.854;13.778;2022-10-15T13:33:42;17.50;99.90
18876;DHT22;9570;50.854;13.778;2022-10-15T13:36:13;17.50;99.90
18876;DHT22;9570;50.854;13.778;2022-10-15T13:38:41;17.50;99.90
18876;DHT22;9570;50.854;13.778;2022-10-15T13:41:07;17.60;99.90
18876;DHT22;9570;50.854;13.778;2022-10-15T13:43:33;17.70;99.90
18876;DHT22;9570;50.854;13.778;2022-10-15T13:45:59;17.80;99.90
18876;DHT22;9570;50.854;13.778;2022-10-15T13:48:30;17.90;99.90
18876;DHT22;9570;50.854;13.778;2022-10-15T13:51:01;18.00;99.90
18876;DHT22;9570;50.854;13.778;2022-10-15T13:53:34;18.10;99.90
18876;DHT22;9570;50.854;13.778;2022-10-15T13:56:03;18.00;99.90
18876;DHT22;9570;50.854;13.778;2022-10-15T13:58:39;18.00;99.90
18876;DHT22;9570;50.854;13.778;2022-10-15T14:01:16;18.00;99.90
18876;DHT22;9570;50.854;13.778;2022-10-15T14:03:50;18.10;99.90
18876;DHT22;9570;50.854;13.778;2022-10-15T14:06:22;18.10;99.90
18876;DHT22;9570;50.854;13.778;2022-10-15T14:08:50;18.10;99.90
18876;DHT22;9570;50.854;13.778;2022-10-15T14:11:17;18.10;99.90
18876;DHT22;9570;50.854;13.778;2022-10-15T14:13:48;18.10;99.90
18876;DHT22;9570;50.854;13.778;2022-10-15T14:16:34;18.20;99.90
18876;DHT22;9570;50.854;13.778;2022-10-15T14:21:29;18.10;99.90
18876;DHT22;9570;50.854;13.778;2022-10-15T14:26:37;18.00;99.90
18876;DHT22;9570;50.854;13.778;2022-10-15T14:29:04;17.90;99.90
18876;DHT22;9570;50.854;13.778;2022-10-15T14:31:44;17.80;99.90
18876;DHT22;9570;50.854;13.778;2022-10-15T14:37:00;17.80;99.90
18876;DHT22;9570;50.854;13.778;2022-10-15T14:39:34;17.70;99.90
18876;DHT22;9570;50.854;13.778;2022-10-15T14:42:02;17.80;99.90
18876;DHT22;9570;50.854;13.778;2022-10-15T14:44:46;17.70;99.90
18876;DHT22;9570;50.854;13.778;2022-10-15T14:47:23;17.70;99.90
18876;DHT22;9570;50.854;13.778;2022-10-15T14:49:55;17.70;99.90
18876;DHT22;9570;50.854;13.778;2022-10-15T14:52:24;17.80;99.90
18876;DHT22;9570;50.854;13.778;2022-10-15T14:55:05;17.80;99.90
18876;DHT22;9570;50.854;13.778;2022-10-15T14:57:37;17.90;99.90
18876;DHT22;9570;50.854;13.778;2022-10-15T15:00:16;17.90;99.90
18876;DHT22;9570;50.854;13.778;2022-10-15T15:02:44;17.90;99.90
18876;DHT22;9570;50.854;13.778;2022-10-15T15:07:36;17.80;99.90
18876;DHT22;9570;50.854;13.778;2022-10-15T15:10:02;17.80;99.90
18876;DHT22;9570;50.854;13.778;2022-10-15T15:12:28;17.70;99.90
18876;DHT22;9570;50.854;13.778;2022-10-15T15:14:55;17.60;99.90
18876;DHT22;9570;50.854;13.778;2022-10-15T15:17:23;17.60;99.90
18876;DHT22;9570;50.854;13.778;2022-10-15T15:19:51;17.60;99.90
18876;DHT22;9570;50.854;13.778;2022-10-15T15:22:21;17.60;99.90
18876;DHT22;9570;50.854;13.778;2022-10-15T15:24:47;17.60;99.90
18876;DHT22;9570;50.854;13.778;2022-10-15T15:27:21;17.50;99.90
18876;DHT22;9570;50.854;13.778;2022-10-15T15:29:48;17.50;99.90
18876;DHT22;9570;50.854;13.778;2022-10-15T15:32:14;17.60;99.90
18876;DHT22;9570;50.854;13.778;2022-10-15T15:34:40;17.50;99.90
18876;DHT22;9570;50.854;13.778;2022-10-15T15:37:15;17.50;99.90
18876;DHT22;9570;50.854;13.778;2022-10-15T15:39:41;17.40;99.90
18876;DHT22;9570;50.854;13.778;2022-10-15T15:42:10;17.30;99.90
18876;DHT22;9570;50.854;13.778;2022-10-15T15:44:36;17.40;99.90
18876;DHT22;9570;50.854;13.778;2022-10-15T15:47:02;17.30;99.90
18876;DHT22;9570;50.854;13.778;2022-10-15T15:49:27;17.20;99.90
18876;DHT22;9570;50.854;13.778;2022-10-15T15:51:53;17.10;99.90
18876;DHT22;9570;50.854;13.778;2022-10-15T15:54:18;17.20;99.90
18876;DHT22;9570;50.854;13.778;2022-10-15T15:56:44;17.10;99.90
18876;DHT22;9570;50.854;13.778;2022-10-15T15:59:09;17.10;99.90
18876;DHT22;9570;50.854;13.778;2022-10-15T16:01:35;17.10;99.90
18876;DHT22;9570;50.854;13.778;2022-10-15T16:04:00;17.10;99.90
18876;DHT22;9570;50.854;13.778;2022-10-15T16:06:26;17.00;99.90
18876;DHT22;9570;50.854;13.778;2022-10-15T16:08:51;16.90;99.90
18876;DHT22;9570;50.854;13.778;2022-10-15T16:11:19;16.90;99.90
18876;DHT22;9570;50.854;13.778;2022-10-15T16:13:45;16.80;99.90
18876;DHT22;9570;50.854;13.778;2022-10-15T16:16:11;16.70;99.90
18876;DHT22;9570;50.854;13.778;2022-10-15T16:18:36;16.60;99.90
18876;DHT22;9570;50.854;13.778;2022-10-15T16:21:03;16.50;99.90
18876;DHT22;9570;50.854;13.778;2022-10-15T16:23:28;16.40;99.90
18876;DHT22;9570;50.854;13.778;2022-10-15T16:25:54;16.30;99.90
18876;DHT22;9570;50.854;13.778;2022-10-15T16:28:22;16.20;99.90
18876;DHT22;9570;50.854;13.778;2022-10-15T16:30:47;16.20;99.90
18876;DHT22;9570;50.854;13.778;2022-10-15T16:33:13;16.10;99.90
18876;DHT22;9570;50.854;13.778;2022-10-15T16:35:39;16.00;99.90
18876;DHT22;9570;50.854;13.778;2022-10-15T16:38:05;15.80;99.90
18876;DHT22;9570;50.854;13.778;2022-10-15T16:40:30;15.70;99.90
18876;DHT22;9570;50.854;13.778;2022-10-15T16:42:56;15.70;99.90
18876;DHT22;9570;50.854;13.778;2022-10-15T16:45:22;15.60;99.90
18876;DHT22;9570;50.854;13.778;2022-10-15T16:47:48;15.60;99.90
18876;DHT22;9570;50.854;13.778;2022-10-15T16:50:14;15.50;99.90
18876;DHT22;9570;50.854;13.778;2022-10-15T16:52:39;15.50;99.90
18876;DHT22;9570;50.854;13.778;2022-10-15T16:55:05;15.40;99.90
18876;DHT22;9570;50.854;13.778;2022-10-15T16:57:31;15.30;99.90
18876;DHT22;9570;50.854;13.778;2022-10-15T16:59:56;15.30;99.90
18876;DHT22;9570;50.854;13.778;2022-10-15T17:02:22;15.30;99.90
18876;DHT22;9570;50.854;13.778;2022-10-15T17:04:47;15.20;99.90
18876;DHT22;9570;50.854;13.778;2022-10-15T17:07:13;15.20;99.90
18876;DHT22;9570;50.854;13.778;2022-10-15T17:09:39;15.10;99.90
18876;DHT22;9570;50.854;13.778;2022-10-15T17:12:04;15.10;99.90
18876;DHT22;9570;50.854;13.778;2022-10-15T17:14:30;15.00;99.90
18876;DHT22;9570;50.854;13.778;2022-10-15T17:16:55;14.90;99.90
18876;DHT22;9570;50.854;13.778;2022-10-15T17:19:23;14.90;99.90
18876;DHT22;9570;50.854;13.778;2022-10-15T17:21:49;14.80;99.90
18876;DHT22;9570;50.854;13.778;2022-10-15T17:24:17;14.80;99.90
18876;DHT22;9570;50.854;13.778;2022-10-15T17:26:43;14.70;99.90